createdAt,value
2019-06-26T00:00:41.971Z,1014.22
2019-06-26T00:01:41.974Z,1014.25
2019-06-26T00:02:42.001Z,1014.21
2019-06-26T00:03:42.023Z,1014.22
2019-06-26T00:04:42.049Z,1014.23
2019-06-26T00:05:42.072Z,1014.21
2019-06-26T00:06:42.099Z,1014.22
2019-06-26T00:07:42.122Z,1014.20
2019-06-26T00:08:42.146Z,1014.19
2019-06-26T00:09:42.173Z,1014.20
2019-06-26T00:10:42.197Z,1014.19
2019-06-26T00:11:42.220Z,1014.18
2019-06-26T00:12:42.249Z,1014.15
2019-06-26T00:13:42.270Z,1014.21
2019-06-26T00:14:42.297Z,1014.17
2019-06-26T00:15:42.320Z,1014.18
2019-06-26T00:16:42.346Z,1014.16
2019-06-26T00:17:42.373Z,1014.19
2019-06-26T00:18:42.474Z,1014.21
2019-06-26T00:19:42.422Z,1014.18
2019-06-26T00:20:42.443Z,1014.19
2019-06-26T00:21:42.469Z,1014.16
2019-06-26T00:22:42.498Z,1014.19
2019-06-26T00:23:42.519Z,1014.18
2019-06-26T00:24:42.542Z,1014.19
2019-06-26T00:25:42.573Z,1014.22
2019-06-26T00:26:42.590Z,1014.19
2019-06-26T00:27:42.617Z,1014.20
2019-06-26T00:28:42.642Z,1014.20
2019-06-26T00:29:42.666Z,1014.17
2019-06-26T00:30:42.693Z,1014.18
2019-06-26T00:31:42.799Z,1014.17
2019-06-26T00:32:42.797Z,1014.22
2019-06-26T00:33:42.983Z,1014.19
2019-06-26T00:34:42.857Z,1014.19
2019-06-26T00:35:42.873Z,1014.19
2019-06-26T00:36:42.845Z,1014.14
2019-06-26T00:37:42.868Z,1014.12
2019-06-26T00:38:42.888Z,1014.17
2019-06-26T00:39:42.913Z,1014.15
2019-06-26T00:40:42.936Z,1014.16
2019-06-26T00:41:42.962Z,1014.17
2019-06-26T00:42:42.991Z,1014.11
2019-06-26T00:43:43.061Z,1014.18
2019-06-26T00:44:43.035Z,1014.18
2019-06-26T00:45:43.061Z,1014.19
2019-06-26T00:46:43.094Z,1014.12
2019-06-26T00:47:43.110Z,1014.10
2019-06-26T00:48:43.135Z,1014.12
2019-06-26T00:49:43.161Z,1014.13
2019-06-26T00:50:43.183Z,1014.12
2019-06-26T00:51:43.210Z,1014.14
2019-06-26T00:52:43.232Z,1014.12
2019-06-26T00:53:43.257Z,1014.13
2019-06-26T00:54:43.282Z,1014.17
2019-06-26T00:55:43.307Z,1014.15
2019-06-26T00:56:43.331Z,1014.15
2019-06-26T00:57:43.356Z,1014.14
2019-06-26T00:58:43.381Z,1014.13
2019-06-26T00:59:43.408Z,1014.13
2019-06-26T01:00:43.427Z,1014.14
2019-06-26T01:01:43.452Z,1014.14
2019-06-26T01:02:43.541Z,1014.13
2019-06-26T01:03:43.503Z,1014.12
2019-06-26T01:04:43.526Z,1014.12
2019-06-26T01:05:43.550Z,1014.11
2019-06-26T01:06:43.577Z,1014.13
2019-06-26T01:07:43.600Z,1014.15
2019-06-26T01:08:43.627Z,1014.12
2019-06-26T01:09:43.676Z,1014.08
2019-06-26T01:10:43.673Z,1014.13
2019-06-26T01:11:43.700Z,1014.09
2019-06-26T01:12:43.721Z,1014.06
2019-06-26T01:13:57.385Z,1014.10
2019-06-26T01:14:43.773Z,1014.06
2019-06-26T01:15:43.794Z,1014.05
2019-06-26T01:16:43.821Z,1014.03
2019-06-26T01:17:43.844Z,1014.08
2019-06-26T01:18:43.870Z,1014.04
2019-06-26T01:19:43.893Z,1014.02
2019-06-26T01:20:43.918Z,1014.01
2019-06-26T01:21:43.941Z,1013.99
2019-06-26T01:22:43.979Z,1013.99
2019-06-26T01:23:43.991Z,1014.00
2019-06-26T01:24:44.013Z,1013.95
2019-06-26T01:25:44.039Z,1013.93
2019-06-26T01:26:44.063Z,1013.95
2019-06-26T01:27:44.271Z,1013.99
2019-06-26T01:28:44.113Z,1013.97
2019-06-26T01:29:44.139Z,1013.96
2019-06-26T01:30:44.163Z,1013.96
2019-06-26T01:31:44.187Z,1013.99
2019-06-26T01:32:44.215Z,1013.99
2019-06-26T01:33:44.285Z,1014.03
2019-06-26T01:34:44.257Z,1014.03
2019-06-26T01:35:44.286Z,1013.97
2019-06-26T01:36:44.308Z,1014.00
2019-06-26T01:37:44.331Z,1014.00
2019-06-26T01:38:44.359Z,1014.02
2019-06-26T01:39:44.380Z,1013.98
2019-06-26T01:40:44.404Z,1014.01
2019-06-26T01:41:44.429Z,1013.98
2019-06-26T01:42:44.453Z,1014.03
2019-06-26T01:43:44.477Z,1014.03
2019-06-26T01:44:44.501Z,1014.01
2019-06-26T01:45:44.526Z,1014.03
2019-06-26T01:46:44.549Z,1014.03
2019-06-26T01:47:44.588Z,1014.02
2019-06-26T01:48:44.599Z,1014.02
2019-06-26T01:49:44.696Z,1014.01
2019-06-26T01:50:44.698Z,1014.01
2019-06-26T01:51:44.691Z,1014.00
2019-06-26T01:52:44.766Z,1014.01
2019-06-26T01:53:44.779Z,1013.99
2019-06-26T01:54:44.765Z,1013.98
2019-06-26T01:55:44.827Z,1014.00
2019-06-26T01:56:44.791Z,1013.93
2019-06-26T01:57:44.818Z,1013.97
2019-06-26T01:58:44.841Z,1013.98
2019-06-26T01:59:44.866Z,1013.97
2019-06-26T02:00:44.887Z,1013.99
2019-06-26T02:01:44.916Z,1013.95
2019-06-26T02:02:44.943Z,1014.01
2019-06-26T02:03:44.963Z,1014.00
2019-06-26T02:04:44.993Z,1013.99
2019-06-26T02:05:45.008Z,1013.93
2019-06-26T02:06:45.036Z,1013.96
2019-06-26T02:07:45.059Z,1013.92
2019-06-26T02:08:45.083Z,1013.98
2019-06-26T02:09:45.107Z,1013.95
2019-06-26T02:10:45.131Z,1014.00
2019-06-26T02:11:45.153Z,1013.97
2019-06-26T02:12:45.178Z,1013.97
2019-06-26T02:13:45.202Z,1013.98
2019-06-26T02:14:45.226Z,1013.95
2019-06-26T02:15:45.254Z,1013.96
2019-06-26T02:16:45.272Z,1013.94
2019-06-26T02:17:45.303Z,1013.91
2019-06-26T02:18:45.321Z,1013.93
2019-06-26T02:19:45.348Z,1013.87
2019-06-26T02:20:45.373Z,1013.85
2019-06-26T02:21:45.396Z,1013.85
2019-06-26T02:22:45.421Z,1013.87
2019-06-26T02:23:45.445Z,1013.80
2019-06-26T02:24:45.468Z,1013.85
2019-06-26T02:25:45.509Z,1013.83
2019-06-26T02:26:45.516Z,1013.81
2019-06-26T02:27:45.539Z,1013.78
2019-06-26T02:28:45.565Z,1013.79
2019-06-26T02:29:45.588Z,1013.76
2019-06-26T02:30:45.613Z,1013.76
2019-06-26T02:31:45.635Z,1013.70
2019-06-26T02:32:45.659Z,1013.75
2019-06-26T02:33:45.690Z,1013.74
2019-06-26T02:34:45.707Z,1013.72
2019-06-26T02:35:45.731Z,1013.72
2019-06-26T02:36:45.756Z,1013.69
2019-06-26T02:37:45.802Z,1013.70
2019-06-26T02:38:45.804Z,1013.74
2019-06-26T02:39:45.828Z,1013.66
2019-06-26T02:40:45.853Z,1013.68
2019-06-26T02:41:45.875Z,1013.69
2019-06-26T02:42:45.902Z,1013.63
2019-06-26T02:43:45.926Z,1013.63
2019-06-26T02:44:53.434Z,1013.64
2019-06-26T02:45:45.973Z,1013.60
2019-06-26T02:46:45.997Z,1013.60
2019-06-26T02:47:46.024Z,1013.56
2019-06-26T02:48:46.046Z,1013.54
2019-06-26T02:49:46.074Z,1013.57
2019-06-26T02:50:46.092Z,1013.58
2019-06-26T02:51:46.121Z,1013.56
2019-06-26T02:52:46.139Z,1013.56
2019-06-26T02:53:46.163Z,1013.55
2019-06-26T02:54:46.190Z,1013.55
2019-06-26T02:55:46.213Z,1013.53
2019-06-26T02:56:46.236Z,1013.56
2019-06-26T02:57:46.263Z,1013.53
2019-06-26T02:58:46.302Z,1013.50
2019-06-26T02:59:46.307Z,1013.51
2019-06-26T03:00:46.330Z,1013.49
2019-06-26T03:01:46.356Z,1013.50
2019-06-26T03:02:46.381Z,1013.49
2019-06-26T03:03:46.422Z,1013.46
2019-06-26T03:04:46.427Z,1013.47
2019-06-26T03:05:46.451Z,1013.48
2019-06-26T03:06:46.475Z,1013.44
2019-06-26T03:07:46.500Z,1013.42
2019-06-26T03:08:46.547Z,1013.38
2019-06-26T03:09:46.611Z,1013.37
2019-06-26T03:10:46.602Z,1013.41
2019-06-26T03:11:46.682Z,1013.35
2019-06-26T03:12:46.798Z,1013.38
2019-06-26T03:13:46.661Z,1013.36
2019-06-26T03:14:46.666Z,1013.43
2019-06-26T03:15:50.196Z,1013.48
2019-06-26T03:16:46.713Z,1013.52
2019-06-26T03:17:55.254Z,1013.53
2019-06-26T03:18:46.763Z,1013.56
2019-06-26T03:19:46.788Z,1013.54
2019-06-26T03:20:46.809Z,1013.56
2019-06-26T03:21:46.838Z,1013.57
2019-06-26T03:22:46.859Z,1013.57
2019-06-26T03:23:46.881Z,1013.60
2019-06-26T03:24:46.905Z,1013.59
2019-06-26T03:25:46.931Z,1013.58
2019-06-26T03:26:46.962Z,1013.60
2019-06-26T03:27:46.978Z,1013.61
2019-06-26T03:28:47.002Z,1013.59
2019-06-26T03:29:47.025Z,1013.62
2019-06-26T03:30:47.051Z,1013.59
2019-06-26T03:31:47.082Z,1013.57
2019-06-26T03:32:47.097Z,1013.60
2019-06-26T03:33:47.120Z,1013.57
2019-06-26T03:34:47.153Z,1013.58
2019-06-26T03:35:47.168Z,1013.57
2019-06-26T03:36:47.194Z,1013.61
2019-06-26T03:37:47.216Z,1013.63
2019-06-26T03:38:47.241Z,1013.62
2019-06-26T03:39:47.267Z,1013.63
2019-06-26T03:40:47.290Z,1013.63
2019-06-26T03:41:47.310Z,1013.66
2019-06-26T03:42:47.372Z,1013.65
2019-06-26T03:43:47.361Z,1013.67
2019-06-26T03:44:47.384Z,1013.65
2019-06-26T03:45:47.711Z,1013.67
2019-06-26T03:46:47.432Z,1013.68
2019-06-26T03:47:47.469Z,1013.72
2019-06-26T03:48:47.479Z,1013.76
2019-06-26T03:49:47.503Z,1013.76
2019-06-26T03:50:47.535Z,1013.76
2019-06-26T03:51:47.555Z,1013.78
2019-06-26T03:52:47.581Z,1013.80
2019-06-26T03:53:47.601Z,1013.77
2019-06-26T03:54:47.624Z,1013.80
2019-06-26T03:55:47.652Z,1013.80
2019-06-26T03:56:47.673Z,1013.81
2019-06-26T03:57:47.697Z,1013.82
2019-06-26T03:58:47.720Z,1013.82
2019-06-26T03:59:47.746Z,1013.83
2019-06-26T04:00:47.775Z,1013.83
2019-06-26T04:01:47.795Z,1013.86
2019-06-26T04:02:47.818Z,1013.86
2019-06-26T04:03:47.843Z,1013.85
2019-06-26T04:04:47.869Z,1013.86
2019-06-26T04:05:47.890Z,1013.86
2019-06-26T04:06:47.933Z,1013.90
2019-06-26T04:07:47.940Z,1013.88
2019-06-26T04:08:47.963Z,1013.84
2019-06-26T04:09:47.988Z,1013.86
2019-06-26T04:10:48.011Z,1013.86
2019-06-26T04:11:48.037Z,1013.87
2019-06-26T04:12:48.062Z,1013.87
2019-06-26T04:13:48.088Z,1013.90
2019-06-26T04:14:48.106Z,1013.88
2019-06-26T04:15:50.778Z,1013.91
2019-06-26T04:16:48.154Z,1013.91
2019-06-26T04:17:48.188Z,1013.92
2019-06-26T04:18:48.204Z,1013.91
2019-06-26T04:19:48.229Z,1013.95
2019-06-26T04:20:48.252Z,1013.94
2019-06-26T04:21:48.277Z,1013.94
2019-06-26T04:22:48.299Z,1013.97
2019-06-26T04:23:48.325Z,1013.92
2019-06-26T04:24:48.351Z,1013.97
2019-06-26T04:25:48.381Z,1013.94
2019-06-26T04:26:48.409Z,1013.91
2019-06-26T04:27:48.432Z,1013.89
2019-06-26T04:28:48.514Z,1013.92
2019-06-26T04:29:48.505Z,1013.91
2019-06-26T04:30:48.569Z,1013.93
2019-06-26T04:31:48.571Z,1013.88
2019-06-26T04:32:48.564Z,1013.89
2019-06-26T04:33:48.568Z,1013.93
2019-06-26T04:34:48.598Z,1013.92
2019-06-26T04:35:48.619Z,1013.93
2019-06-26T04:36:48.642Z,1013.94
2019-06-26T04:37:48.668Z,1013.92
2019-06-26T04:38:48.688Z,1013.90
2019-06-26T04:39:48.717Z,1013.91
2019-06-26T04:40:48.741Z,1013.93
2019-06-26T04:41:48.783Z,1013.88
2019-06-26T04:42:48.791Z,1013.90
2019-06-26T04:43:48.814Z,1013.89
2019-06-26T04:44:48.837Z,1013.88
2019-06-26T04:45:58.121Z,1013.90
2019-06-26T04:46:48.888Z,1013.91
2019-06-26T04:47:48.911Z,1013.89
2019-06-26T04:48:48.935Z,1013.92
2019-06-26T04:49:48.984Z,1013.91
2019-06-26T04:50:48.985Z,1013.94
2019-06-26T04:51:49.012Z,1013.90
2019-06-26T04:52:49.037Z,1013.92
2019-06-26T04:53:49.061Z,1013.94
2019-06-26T04:54:49.091Z,1013.93
2019-06-26T04:55:49.108Z,1013.94
2019-06-26T04:56:49.132Z,1013.92
2019-06-26T04:57:49.168Z,1013.91
2019-06-26T04:58:49.184Z,1013.95
2019-06-26T04:59:49.207Z,1013.92
2019-06-26T05:00:49.233Z,1013.94
2019-06-26T05:01:49.270Z,1013.93
2019-06-26T05:02:49.281Z,1013.91
2019-06-26T05:03:49.305Z,1013.93
2019-06-26T05:04:49.330Z,1013.93
2019-06-26T05:05:49.356Z,1013.98
2019-06-26T05:06:49.380Z,1013.97
2019-06-26T05:07:49.404Z,1013.93
2019-06-26T05:08:49.430Z,1013.94
2019-06-26T05:09:49.454Z,1013.91
2019-06-26T05:10:49.481Z,1013.94
2019-06-26T05:11:49.507Z,1013.97
2019-06-26T05:12:49.532Z,1013.94
2019-06-26T05:13:49.557Z,1013.89
2019-06-26T05:14:49.580Z,1013.87
2019-06-26T05:15:49.606Z,1013.85
2019-06-26T05:16:49.629Z,1013.83
2019-06-26T05:17:49.657Z,1013.85
2019-06-26T05:18:49.680Z,1013.87
2019-06-26T05:19:49.709Z,1013.88
2019-06-26T05:20:49.728Z,1013.92
2019-06-26T05:21:49.755Z,1013.90
2019-06-26T05:22:49.784Z,1013.89
2019-06-26T05:23:49.805Z,1013.87
2019-06-26T05:24:49.834Z,1013.87
2019-06-26T05:25:49.857Z,1013.83
2019-06-26T05:26:49.885Z,1013.86
2019-06-26T05:27:49.910Z,1013.87
2019-06-26T05:28:49.935Z,1013.86
2019-06-26T05:29:49.963Z,1013.91
2019-06-26T05:30:49.988Z,1013.90
2019-06-26T05:31:50.021Z,1013.90
2019-06-26T05:32:50.045Z,1013.91
2019-06-26T05:33:50.066Z,1013.90
2019-06-26T05:34:50.095Z,1013.91
2019-06-26T05:35:50.121Z,1013.90
2019-06-26T05:36:50.148Z,1013.91
2019-06-26T05:37:50.176Z,1013.88
2019-06-26T05:38:50.203Z,1013.85
2019-06-26T05:39:50.413Z,1013.86
2019-06-26T05:40:50.258Z,1013.89
2019-06-26T05:41:50.286Z,1013.91
2019-06-26T05:42:50.313Z,1013.87
2019-06-26T05:43:50.450Z,1013.86
2019-06-26T05:44:50.431Z,1013.91
2019-06-26T05:45:50.478Z,1013.92
2019-06-26T05:46:50.471Z,1013.90
2019-06-26T05:47:50.487Z,1013.88
2019-06-26T05:48:50.538Z,1013.87
2019-06-26T05:49:50.515Z,1013.90
2019-06-26T05:50:50.538Z,1013.89
2019-06-26T05:51:50.586Z,1013.92
2019-06-26T05:52:50.595Z,1013.92
2019-06-26T05:53:50.618Z,1013.92
2019-06-26T05:54:50.644Z,1013.92
2019-06-26T05:55:50.671Z,1013.94
2019-06-26T05:56:50.703Z,1013.93
2019-06-26T05:57:50.724Z,1013.93
2019-06-26T05:58:50.752Z,1013.94
2019-06-26T05:59:50.783Z,1013.93
2019-06-26T06:00:50.805Z,1013.93
2019-06-26T06:01:50.832Z,1013.89
2019-06-26T06:02:53.743Z,1013.91
2019-06-26T06:03:50.891Z,1013.90
2019-06-26T06:04:50.915Z,1013.93
2019-06-26T06:05:50.943Z,1013.94
2019-06-26T06:06:50.967Z,1013.91
2019-06-26T06:07:51.018Z,1013.94
2019-06-26T06:08:51.023Z,1013.94
2019-06-26T06:09:51.050Z,1013.91
2019-06-26T06:10:51.085Z,1013.93
2019-06-26T06:11:51.109Z,1013.94
2019-06-26T06:12:51.131Z,1013.97
2019-06-26T06:13:51.156Z,1013.92
2019-06-26T06:14:51.189Z,1013.94
2019-06-26T06:15:51.214Z,1013.94
2019-06-26T06:16:51.240Z,1013.95
2019-06-26T06:17:51.271Z,1013.98
2019-06-26T06:18:51.327Z,1013.93
2019-06-26T06:19:51.324Z,1014.02
2019-06-26T06:20:51.351Z,1014.01
2019-06-26T06:21:51.378Z,1014.02
2019-06-26T06:22:51.406Z,1014.01
2019-06-26T06:23:51.436Z,1014.06
2019-06-26T06:24:51.462Z,1014.01
2019-06-26T06:25:51.488Z,1014.06
2019-06-26T06:26:51.531Z,1014.04
2019-06-26T06:27:51.547Z,1014.03
2019-06-26T06:28:51.575Z,1014.07
2019-06-26T06:29:51.606Z,1014.03
2019-06-26T06:30:51.636Z,1014.07
2019-06-26T06:31:51.669Z,1014.07
2019-06-26T06:32:51.696Z,1014.06
2019-06-26T06:33:51.725Z,1014.07
2019-06-26T06:34:51.774Z,1014.05
2019-06-26T06:35:51.787Z,1014.03
2019-06-26T06:36:51.817Z,1014.07
2019-06-26T06:37:51.862Z,1014.08
2019-06-26T06:38:51.885Z,1014.08
2019-06-26T06:39:51.910Z,1014.06
2019-06-26T06:40:51.942Z,1014.07
2019-06-26T06:41:51.998Z,1014.10
2019-06-26T06:42:52.006Z,1014.09
2019-06-26T06:43:52.036Z,1014.05
2019-06-26T06:44:52.108Z,1014.10
2019-06-26T06:45:52.099Z,1014.06
2019-06-26T06:47:03.282Z,1014.09
2019-06-26T06:47:52.164Z,1014.10
2019-06-26T06:48:52.196Z,1014.10
2019-06-26T06:49:52.232Z,1014.09
2019-06-26T06:50:52.333Z,1014.15
2019-06-26T06:51:52.348Z,1014.17
2019-06-26T06:52:52.398Z,1014.15
2019-06-26T06:53:52.400Z,1014.14
2019-06-26T06:54:52.398Z,1014.14
2019-06-26T06:55:52.434Z,1014.15
2019-06-26T06:56:52.464Z,1014.17
2019-06-26T06:57:52.498Z,1014.16
2019-06-26T06:58:52.533Z,1014.12
2019-06-26T06:59:52.568Z,1014.12
2019-06-26T07:00:52.599Z,1014.08
2019-06-26T07:01:52.635Z,1014.10
2019-06-26T07:02:52.673Z,1014.12
2019-06-26T07:03:52.709Z,1014.12
2019-06-26T07:04:52.744Z,1014.14
2019-06-26T07:05:52.778Z,1014.12
2019-06-26T07:06:52.891Z,1014.12
2019-06-26T07:07:52.851Z,1014.11
2019-06-26T07:08:52.883Z,1014.14
2019-06-26T07:09:52.927Z,1014.12
2019-06-26T07:10:52.957Z,1014.12
2019-06-26T07:11:52.991Z,1014.12
2019-06-26T07:12:53.036Z,1014.12
2019-06-26T07:13:53.059Z,1014.15
2019-06-26T07:14:53.098Z,1014.13
2019-06-26T07:15:53.135Z,1014.10
2019-06-26T07:16:53.172Z,1014.12
2019-06-26T07:17:53.208Z,1014.16
2019-06-26T07:18:53.252Z,1014.17
2019-06-26T07:19:53.284Z,1014.13
2019-06-26T07:20:53.319Z,1014.16
2019-06-26T07:21:53.356Z,1014.17
2019-06-26T07:22:53.393Z,1014.13
2019-06-26T07:23:53.437Z,1014.16
2019-06-26T07:24:53.465Z,1014.11
2019-06-26T07:25:53.504Z,1014.12
2019-06-26T07:26:53.548Z,1014.13
2019-06-26T07:27:53.639Z,1014.18
2019-06-26T07:28:53.614Z,1014.16
2019-06-26T07:29:53.654Z,1014.15
2019-06-26T07:30:53.697Z,1014.10
2019-06-26T07:31:53.731Z,1014.15
2019-06-26T07:32:53.766Z,1014.14
2019-06-26T07:33:55.782Z,1014.15
2019-06-26T07:34:53.845Z,1014.14
2019-06-26T07:35:53.881Z,1014.08
2019-06-26T07:36:53.921Z,1014.13
2019-06-26T07:37:53.959Z,1014.16
2019-06-26T07:38:54.002Z,1014.15
2019-06-26T07:39:58.738Z,1014.18
2019-06-26T07:40:54.075Z,1014.16
2019-06-26T07:41:54.117Z,1014.22
2019-06-26T07:42:54.153Z,1014.20
2019-06-26T07:43:54.273Z,1014.18
2019-06-26T07:44:54.278Z,1014.21
2019-06-26T07:45:54.364Z,1014.22
2019-06-26T07:46:54.338Z,1014.24
2019-06-26T07:47:54.355Z,1014.26
2019-06-26T07:48:57.322Z,1014.22
2019-06-26T07:49:54.432Z,1014.23
2019-06-26T07:50:54.466Z,1014.26
2019-06-26T07:51:54.506Z,1014.25
2019-06-26T07:52:54.544Z,1014.25
2019-06-26T07:53:54.599Z,1014.24
2019-06-26T07:54:54.633Z,1014.25
2019-06-26T07:55:54.684Z,1014.28
2019-06-26T07:56:54.709Z,1014.24
2019-06-26T07:57:54.744Z,1014.22
2019-06-26T07:58:54.811Z,1014.20
2019-06-26T07:59:54.875Z,1014.23
2019-06-26T08:00:54.877Z,1014.22
2019-06-26T08:01:54.908Z,1014.22
2019-06-26T08:02:54.946Z,1014.24
2019-06-26T08:03:54.986Z,1014.23
2019-06-26T08:04:55.035Z,1014.27
2019-06-26T08:05:55.067Z,1014.29
2019-06-26T08:06:55.109Z,1014.32
2019-06-26T08:07:55.163Z,1014.29
2019-06-26T08:08:55.225Z,1014.29
2019-06-26T08:09:55.230Z,1014.33
2019-06-26T08:10:55.272Z,1014.35
2019-06-26T08:11:55.380Z,1014.35
2019-06-26T08:12:55.356Z,1014.32
2019-06-26T08:13:55.429Z,1014.34
2019-06-26T08:14:55.434Z,1014.34
2019-06-26T08:15:55.477Z,1014.32
2019-06-26T08:16:55.517Z,1014.35
2019-06-26T08:18:00.622Z,1014.38
2019-06-26T08:18:55.602Z,1014.34
2019-06-26T08:19:55.637Z,1014.33
2019-06-26T08:21:11.443Z,1014.36
2019-06-26T08:21:55.722Z,1014.33
2019-06-26T08:22:55.761Z,1014.31
2019-06-26T08:23:55.806Z,1014.33
2019-06-26T08:24:55.845Z,1014.30
2019-06-26T08:25:55.886Z,1014.31
2019-06-26T08:26:55.928Z,1014.35
2019-06-26T08:27:55.989Z,1014.38
2019-06-26T08:28:56.016Z,1014.39
2019-06-26T08:29:56.053Z,1014.31
2019-06-26T08:30:56.094Z,1014.31
2019-06-26T08:31:56.215Z,1014.36
2019-06-26T08:32:56.218Z,1014.35
2019-06-26T08:33:56.271Z,1014.34
2019-06-26T08:34:56.284Z,1014.30
2019-06-26T08:35:56.304Z,1014.37
2019-06-26T08:36:56.345Z,1014.37
2019-06-26T08:38:09.929Z,1014.35
2019-06-26T08:38:56.431Z,1014.38
2019-06-26T08:39:56.474Z,1014.37
2019-06-26T08:40:56.515Z,1014.38
2019-06-26T08:41:56.558Z,1014.33
2019-06-26T08:42:56.599Z,1014.38
2019-06-26T08:43:56.642Z,1014.37
2019-06-26T08:44:56.684Z,1014.39
2019-06-26T08:45:56.725Z,1014.37
2019-06-26T08:46:56.770Z,1014.36
2019-06-26T08:47:56.813Z,1014.38
2019-06-26T08:48:56.858Z,1014.36
2019-06-26T08:49:56.905Z,1014.35
2019-06-26T08:50:56.941Z,1014.35
2019-06-26T08:51:56.983Z,1014.38
2019-06-26T08:52:57.029Z,1014.40
2019-06-26T08:53:57.075Z,1014.40
2019-06-26T08:54:57.115Z,1014.41
2019-06-26T08:55:57.158Z,1014.40
2019-06-26T08:56:57.201Z,1014.42
2019-06-26T08:57:57.243Z,1014.41
2019-06-26T08:58:57.291Z,1014.44
2019-06-26T08:59:57.328Z,1014.39
2019-06-26T09:00:57.375Z,1014.39
2019-06-26T09:01:57.423Z,1014.40
2019-06-26T09:02:57.459Z,1014.38
2019-06-26T09:03:57.504Z,1014.38
2019-06-26T09:04:57.547Z,1014.36
2019-06-26T09:05:57.591Z,1014.39
2019-06-26T09:06:57.631Z,1014.39
2019-06-26T09:07:57.709Z,1014.43
2019-06-26T09:08:57.720Z,1014.42
2019-06-26T09:09:57.762Z,1014.42
2019-06-26T09:10:57.858Z,1014.40
2019-06-26T09:11:57.851Z,1014.39
2019-06-26T09:12:57.895Z,1014.38
2019-06-26T09:13:57.938Z,1014.41
2019-06-26T09:14:57.983Z,1014.42
2019-06-26T09:15:58.024Z,1014.42
2019-06-26T09:16:58.089Z,1014.41
2019-06-26T09:17:58.158Z,1014.42
2019-06-26T09:18:58.217Z,1014.41
2019-06-26T09:19:58.257Z,1014.42
2019-06-26T09:20:58.247Z,1014.44
2019-06-26T09:21:58.287Z,1014.41
2019-06-26T09:22:58.332Z,1014.44
2019-06-26T09:23:58.385Z,1014.42
2019-06-26T09:24:58.421Z,1014.44
2019-06-26T09:25:58.468Z,1014.39
2019-06-26T09:26:58.512Z,1014.37
2019-06-26T09:27:58.555Z,1014.35
2019-06-26T09:28:58.597Z,1014.35
2019-06-26T09:29:58.643Z,1014.35
2019-06-26T09:30:58.686Z,1014.33
2019-06-26T09:31:58.732Z,1014.36
2019-06-26T09:32:58.778Z,1014.33
2019-06-26T09:33:58.822Z,1014.33
2019-06-26T09:34:58.868Z,1014.30
2019-06-26T09:35:58.911Z,1014.33
2019-06-26T09:36:58.956Z,1014.28
2019-06-26T09:37:59.007Z,1014.26
2019-06-26T09:38:59.047Z,1014.26
2019-06-26T09:39:59.091Z,1014.22
2019-06-26T09:40:59.188Z,1014.21
2019-06-26T09:41:59.178Z,1014.27
2019-06-26T09:42:59.226Z,1014.26
2019-06-26T09:43:59.272Z,1014.21
2019-06-26T09:44:59.319Z,1014.22
2019-06-26T09:45:59.359Z,1014.19
2019-06-26T09:46:59.404Z,1014.19
2019-06-26T09:47:59.452Z,1014.21
2019-06-26T09:48:59.501Z,1014.22
2019-06-26T09:49:59.591Z,1014.19
2019-06-26T09:50:59.586Z,1014.17
2019-06-26T09:51:59.627Z,1014.14
2019-06-26T09:52:59.675Z,1014.18
2019-06-26T09:53:59.718Z,1014.16
2019-06-26T09:54:59.771Z,1014.18
2019-06-26T09:55:59.810Z,1014.13
2019-06-26T09:56:59.859Z,1014.16
2019-06-26T09:57:59.911Z,1014.15
2019-06-26T09:58:59.944Z,1014.20
2019-06-26T09:59:59.996Z,1014.16
2019-06-26T10:01:00.115Z,1014.19
2019-06-26T10:02:00.162Z,1014.16
2019-06-26T10:03:00.171Z,1014.22
2019-06-26T10:04:00.181Z,1014.23
2019-06-26T10:05:00.219Z,1014.19
2019-06-26T10:06:00.266Z,1014.17
2019-06-26T10:07:00.323Z,1014.25
2019-06-26T10:08:00.371Z,1014.21
2019-06-26T10:09:00.403Z,1014.20
2019-06-26T10:10:00.452Z,1014.19
2019-06-26T10:11:00.498Z,1014.22
2019-06-26T10:12:00.547Z,1014.17
2019-06-26T10:13:00.588Z,1014.19
2019-06-26T10:14:00.633Z,1014.21
2019-06-26T10:15:00.680Z,1014.15
2019-06-26T10:16:00.856Z,1014.14
2019-06-26T10:17:00.787Z,1014.20
2019-06-26T10:18:00.818Z,1014.16
2019-06-26T10:19:09.943Z,1014.14
2019-06-26T10:20:00.914Z,1014.14
2019-06-26T10:21:00.962Z,1014.17
2019-06-26T10:22:01.002Z,1014.23
2019-06-26T10:23:01.053Z,1014.13
2019-06-26T10:24:01.280Z,1014.13
2019-06-26T10:25:01.143Z,1014.14
2019-06-26T10:26:01.189Z,1014.03
2019-06-26T10:27:01.233Z,1014.09
2019-06-26T10:28:01.282Z,1014.11
2019-06-26T10:29:01.534Z,1014.06
2019-06-26T10:30:01.383Z,1014.05
2019-06-26T10:31:01.421Z,1014.05
2019-06-26T10:32:01.468Z,1014.06
2019-06-26T10:33:01.514Z,1014.06
2019-06-26T10:34:01.604Z,1014.06
2019-06-26T10:35:01.607Z,1014.04
2019-06-26T10:36:01.656Z,1014.02
2019-06-26T10:37:01.708Z,1014.03
2019-06-26T10:38:01.769Z,1014.06
2019-06-26T10:39:01.905Z,1014.02
2019-06-26T10:40:01.836Z,1014.07
2019-06-26T10:41:01.885Z,1014.05
2019-06-26T10:42:01.932Z,1014.07
2019-06-26T10:43:02.061Z,1014.07
2019-06-26T10:44:02.060Z,1013.99
2019-06-26T10:45:02.187Z,1014.08
2019-06-26T10:46:02.122Z,1014.02
2019-06-26T10:47:02.162Z,1014.03
2019-06-26T10:48:02.217Z,1014.03
2019-06-26T10:49:02.254Z,1013.98
2019-06-26T10:50:02.299Z,1013.99
2019-06-26T10:51:02.375Z,1013.92
2019-06-26T10:52:02.402Z,1013.93
2019-06-26T10:53:02.438Z,1013.94
2019-06-26T10:54:02.484Z,1013.95
2019-06-26T10:55:02.531Z,1013.87
2019-06-26T10:56:02.577Z,1013.83
2019-06-26T10:57:02.623Z,1013.83
2019-06-26T10:58:02.672Z,1013.86
2019-06-26T10:59:02.715Z,1013.86
2019-06-26T11:00:02.762Z,1013.82
2019-06-26T11:01:02.808Z,1013.78
2019-06-26T11:02:02.871Z,1013.82
2019-06-26T11:03:02.899Z,1013.84
2019-06-26T11:04:02.948Z,1013.87
2019-06-26T11:05:02.995Z,1013.78
2019-06-26T11:06:03.038Z,1013.79
2019-06-26T11:07:03.089Z,1013.75
2019-06-26T11:08:03.137Z,1013.78
2019-06-26T11:09:03.176Z,1013.77
2019-06-26T11:10:03.223Z,1013.79
2019-06-26T11:11:03.286Z,1013.69
2019-06-26T11:12:03.317Z,1013.69
2019-06-26T11:13:03.361Z,1013.71
2019-06-26T11:14:03.408Z,1013.70
2019-06-26T11:15:03.459Z,1013.69
2019-06-26T11:16:03.511Z,1013.67
2019-06-26T11:17:03.550Z,1013.63
2019-06-26T11:18:03.593Z,1013.65
2019-06-26T11:19:03.640Z,1013.74
2019-06-26T11:20:03.697Z,1013.72
2019-06-26T11:21:03.764Z,1013.68
2019-06-26T11:22:03.778Z,1013.70
2019-06-26T11:23:03.830Z,1013.74
2019-06-26T11:24:03.896Z,1013.81
2019-06-26T11:25:03.957Z,1013.73
2019-06-26T11:26:04.003Z,1013.77
2019-06-26T11:27:04.072Z,1013.76
2019-06-26T11:28:04.065Z,1013.65
2019-06-26T11:29:04.104Z,1013.69
2019-06-26T11:30:04.155Z,1013.75
2019-06-26T11:31:04.197Z,1013.71
2019-06-26T11:32:04.245Z,1013.72
2019-06-26T11:33:04.299Z,1013.73
2019-06-26T11:34:04.395Z,1013.71
2019-06-26T11:35:04.382Z,1013.81
2019-06-26T11:36:04.429Z,1013.69
2019-06-26T11:37:04.810Z,1013.62
2019-06-26T11:38:04.526Z,1013.62
2019-06-26T11:39:04.575Z,1013.57
2019-06-26T11:40:04.617Z,1013.57
2019-06-26T11:41:04.679Z,1013.55
2019-06-26T11:42:04.708Z,1013.57
2019-06-26T11:43:04.756Z,1013.56
2019-06-26T11:44:04.802Z,1013.57
2019-06-26T11:45:04.848Z,1013.56
2019-06-26T11:46:04.915Z,1013.53
2019-06-26T11:47:04.990Z,1013.53
2019-06-26T11:48:04.992Z,1013.50
2019-06-26T11:49:05.038Z,1013.53
2019-06-26T11:50:05.083Z,1013.51
2019-06-26T11:51:05.132Z,1013.56
2019-06-26T11:52:05.175Z,1013.54
2019-06-26T11:53:05.222Z,1013.58
2019-06-26T11:54:05.277Z,1013.57
2019-06-26T11:55:05.312Z,1013.52
2019-06-26T11:56:05.367Z,1013.49
2019-06-26T11:57:05.427Z,1013.58
2019-06-26T11:58:05.453Z,1013.55
2019-06-26T11:59:05.497Z,1013.49
2019-06-26T12:00:05.710Z,1013.55
2019-06-26T12:01:05.591Z,1013.65
2019-06-26T12:02:05.640Z,1013.61
2019-06-26T12:03:05.684Z,1013.57
2019-06-26T12:04:05.731Z,1013.58
2019-06-26T12:05:05.777Z,1013.60
2019-06-26T12:06:17.924Z,1013.53